Starke, Florida
Current Conditions -  °F | °C
As of 7:53 PM on Monday 20 Oct 2014 (Local Time) from KGNV Reporting Station
Broken Clouds Broken Clouds  
Wind Chill: 73°   Ceiling: 6000
Heat Index: 73°   Visibility: 10mi
Dew Point: 66°   Wind: 5mph
Humidity: 79%   Direction: 90°E
Pressure: 29.97"   Gusts: NA
Location:  29.95°N, 82.11°W
Report Text: KGNV 202353Z 09004KT 10SM BKN060 23/19 A2997 RMK AO2 SLP147 T02280189 10289 20217 53003
Loading
Personal Weather Stations






























Interactive Weather Map
Tropical Storm Tracking
New forecast layout! Learn more

10-Day Weather Forecast

Advertisements
Track Severe Weather on mobile